Time;durP1;ratioP1;P1;durP2;ratioP2;P2;SDS_P1;SDS_P2;PMS_P1;PMS_P2;Temp;Humidity;BMP_temperature;BMP_pressure;BME280_temperature;BME280_humidity;BME280_pressure;Samples;Min_cycle;Max_cycle;Signal;HPM_P1;HPM_P2
2023/09/08 00:00:13;;;;;;;18.60;5.90;;;;;;;21.03;48.43;99799.77;67804;1278;1016462;-65
2023/09/08 00:03:35;;;;;;;19.10;6.10;;;;;;;20.99;48.47;99802.08;67801;1278;1016421;-65
2023/09/08 00:06:37;;;;;;;19.70;6.20;;;;;;;21.04;48.53;99799.20;67745;1278;1016454;-65
2023/09/08 00:09:40;;;;;;;21.10;6.20;;;;;;;20.91;48.94;99799.76;67756;1278;1019107;-64
2023/09/08 00:12:42;;;;;;;17.70;6.00;;;;;;;20.97;48.77;99799.23;67758;1278;1017295;-65
2023/09/08 00:15:45;;;;;;;22.90;7.10;;;;;;;21.06;48.55;99791.73;67769;1278;1016159;-64
2023/09/08 00:18:47;;;;;;;19.20;6.40;;;;;;;21.10;48.51;99790.11;67788;1278;1016721;-65
2023/09/08 00:21:49;;;;;;;24.20;6.90;;;;;;;21.13;48.51;99788.20;67817;1278;1016882;-64
2023/09/08 00:24:52;;;;;;;23.10;7.10;;;;;;;21.11;48.59;99787.64;67773;1278;1016396;-65
2023/09/08 00:27:54;;;;;;;20.20;6.40;;;;;;;21.17;48.39;99787.50;67770;1278;1016424;-65
2023/09/08 00:30:57;;;;;;;23.00;6.50;;;;;;;21.23;48.08;99789.31;67795;1278;1016256;-65
2023/09/08 00:34:00;;;;;;;23.80;6.90;;;;;;;21.07;48.37;99790.05;67775;1278;1016310;-65
2023/09/08 00:37:06;;;;;;;21.20;6.00;;;;;;;20.87;48.64;99792.45;67765;1278;1015907;-64
2023/09/08 00:40:09;;;;;;;24.60;7.20;;;;;;;20.71;48.93;99785.23;67806;1278;1016883;-64
2023/09/08 00:43:12;;;;;;;17.50;5.20;;;;;;;20.49;48.95;99783.48;67785;1278;1016136;-64
2023/09/08 00:46:14;;;;;;;;;;;;;;;20.41;48.79;99781.36;67766;1278;1016259;-65
2023/09/08 00:49:16;;;;;;;18.30;5.70;;;;;;;20.44;48.77;99776.83;67760;1278;1016192;-65
2023/09/08 00:52:19;;;;;;;20.00;6.90;;;;;;;20.31;49.04;99777.84;67764;1278;1016312;-64
2023/09/08 00:55:21;;;;;;;23.80;7.60;;;;;;;20.29;49.24;99778.17;67816;1278;1018554;-64
2023/09/08 00:58:23;;;;;;;20.90;6.60;;;;;;;20.36;49.26;99784.77;67761;1278;1016208;-64
2023/09/08 01:01:26;;;;;;;18.80;5.90;;;;;;;20.44;48.98;99775.27;67745;1278;1016308;-65
2023/09/08 01:04:28;;;;;;;20.10;6.50;;;;;;;20.37;49.03;99780.14;67759;1278;1017206;-63
2023/09/08 01:07:31;;;;;;;18.90;6.40;;;;;;;20.37;49.11;99781.94;67733;1278;1016369;-64
2023/09/08 01:10:33;;;;;;;23.40;7.30;;;;;;;20.38;49.06;99783.08;67786;1278;1016973;-64
2023/09/08 01:13:35;;;;;;;19.20;6.70;;;;;;;20.38;49.03;99782.02;67758;1278;1016430;-65
2023/09/08 01:16:39;;;;;;;18.80;6.20;;;;;;;20.27;49.22;99780.59;67743;1278;1016457;-65
2023/09/08 01:19:42;;;;;;;21.20;7.00;;;;;;;20.33;49.13;99783.64;67729;1278;1016281;-65
2023/09/08 01:22:44;;;;;;;21.10;7.40;;;;;;;20.43;48.98;99783.34;67696;1278;1016223;-63
2023/09/08 01:25:47;;;;;;;23.50;7.30;;;;;;;20.46;48.95;99786.04;67650;1278;1016378;-65
2023/09/08 01:28:49;;;;;;;20.90;6.80;;;;;;;20.42;48.85;99783.02;67803;1278;1016477;-65
2023/09/08 01:31:51;;;;;;;23.50;7.30;;;;;;;20.30;48.99;99780.17;67785;1278;1016460;-64
2023/09/08 01:34:54;;;;;;;;;;;;;;;20.26;48.94;99779.67;67782;1278;1016301;-64
2023/09/08 01:37:56;;;;;;;20.40;6.40;;;;;;;20.21;49.01;99777.96;67759;1278;1018158;-64
2023/09/08 01:40:58;;;;;;;20.10;6.40;;;;;;;20.21;48.93;99775.78;67747;1278;1016479;-64
2023/09/08 01:44:05;;;;;;;20.20;6.20;;;;;;;20.25;49.10;99773.67;67759;1278;1016453;-64
2023/09/08 01:47:07;;;;;;;20.40;6.40;;;;;;;20.27;49.13;99769.95;67772;1278;1016365;-65
2023/09/08 01:50:09;;;;;;;21.60;6.70;;;;;;;20.30;49.04;99769.48;67781;1278;1016181;-64
2023/09/08 01:53:12;;;;;;;18.60;6.30;;;;;;;20.31;48.92;99769.65;67789;1278;1016432;-65
2023/09/08 01:56:14;;;;;;;21.00;5.80;;;;;;;20.28;48.81;99770.05;67764;1278;1018011;-64
2023/09/08 01:59:17;;;;;;;20.60;6.10;;;;;;;20.21;48.73;99767.08;67740;1278;1018411;-64
2023/09/08 02:02:19;;;;;;;20.70;6.40;;;;;;;20.18;48.98;99767.69;67745;1278;1016140;-64
2023/09/08 02:05:22;;;;;;;;;;;;;;;20.26;49.02;99767.92;67741;1278;1015995;-64
2023/09/08 02:08:24;;;;;;;19.30;5.70;;;;;;;20.17;48.78;99767.98;67829;1278;1016372;-64
2023/09/08 02:11:26;;;;;;;19.70;6.30;;;;;;;20.11;48.63;99769.73;67735;1278;1016295;-64
2023/09/08 02:14:29;;;;;;;16.60;5.70;;;;;;;20.11;48.69;99765.17;67770;1278;1019982;-63
2023/09/08 02:17:31;;;;;;;17.90;5.90;;;;;;;20.08;48.58;99760.59;67752;1278;1016739;-63
2023/09/08 02:20:34;;;;;;;19.50;6.20;;;;;;;19.96;48.70;99761.06;67721;1278;1018858;-63
2023/09/08 02:23:36;;;;;;;18.20;6.10;;;;;;;19.86;48.92;99761.86;67813;1278;1016426;-64
2023/09/08 02:26:38;;;;;;;21.20;6.80;;;;;;;19.77;48.91;99761.27;67798;1278;1016166;-64
2023/09/08 02:29:41;;;;;;;18.60;6.00;;;;;;;19.81;50.52;99757.94;67731;1278;1016470;-64
2023/09/08 02:32:43;;;;;;;21.50;6.20;;;;;;;19.71;50.44;99752.50;67747;1278;1017991;-65
2023/09/08 02:35:46;;;;;;;20.50;7.20;;;;;;;19.65;49.76;99751.09;67811;1278;1016424;-65
2023/09/08 02:38:48;;;;;;;20.60;6.30;;;;;;;19.64;49.62;99749.92;67836;1278;1016483;-65
2023/09/08 02:41:50;;;;;;;17.90;5.80;;;;;;;19.64;49.45;99750.80;67807;1278;1016442;-65
2023/09/08 02:44:53;;;;;;;19.50;6.20;;;;;;;19.68;49.24;99752.77;67775;1278;1015962;-64
2023/09/08 02:47:55;;;;;;;18.50;5.90;;;;;;;19.65;49.34;99751.61;67735;1278;1015769;-65
2023/09/08 02:50:58;;;;;;;18.50;6.30;;;;;;;19.57;49.40;99746.45;67821;1278;1018409;-65
2023/09/08 02:54:00;;;;;;;17.70;6.00;;;;;;;19.53;49.41;99743.04;67811;1278;1016016;-64
2023/09/08 02:57:03;;;;;;;19.20;5.70;;;;;;;19.42;49.57;99744.13;67764;1278;1016426;-63
2023/09/08 03:00:05;;;;;;;19.00;6.00;;;;;;;19.36;49.32;99741.09;67749;1278;1016503;-65
2023/09/08 03:03:07;;;;;;;18.00;5.80;;;;;;;19.38;49.27;99742.67;67735;1278;1016442;-65
2023/09/08 03:06:10;;;;;;;18.90;5.80;;;;;;;19.32;49.47;99741.95;67756;1278;1016211;-64
2023/09/08 03:09:12;;;;;;;19.90;6.20;;;;;;;19.27;49.34;99742.51;67814;1278;1015893;-65
2023/09/08 03:12:15;;;;;;;18.20;6.00;;;;;;;19.28;49.41;99737.45;67743;1278;1016315;-66
2023/09/08 03:15:17;;;;;;;18.70;5.90;;;;;;;19.33;49.23;99733.88;67747;1278;1015881;-65
2023/09/08 03:18:19;;;;;;;20.10;6.10;;;;;;;19.25;49.34;99732.05;67740;1278;1016362;-65
2023/09/08 03:21:22;;;;;;;21.10;6.90;;;;;;;19.22;49.59;99731.96;67751;1278;1016480;-65
2023/09/08 03:24:24;;;;;;;20.50;6.50;;;;;;;19.18;49.48;99729.43;67748;1278;1016278;-64
2023/09/08 03:27:27;;;;;;;19.80;6.50;;;;;;;19.27;49.36;99726.52;67790;1278;1016610;-64
2023/09/08 03:30:29;;;;;;;18.30;6.00;;;;;;;19.25;49.37;99727.94;67769;1278;1016524;-65
2023/09/08 03:33:32;;;;;;;19.10;5.80;;;;;;;19.14;49.49;99733.24;67678;1278;1016349;-65
2023/09/08 03:36:35;;;;;;;21.00;6.60;;;;;;;19.08;49.55;99733.55;67779;1278;1016626;-65
2023/09/08 03:39:38;;;;;;;20.00;6.30;;;;;;;18.95;49.76;99733.77;67779;1278;1018945;-65
2023/09/08 03:42:41;;;;;;;19.90;6.50;;;;;;;18.79;49.97;99734.16;67752;1278;1016596;-64
2023/09/08 03:45:44;;;;;;;20.50;6.70;;;;;;;18.82;49.76;99735.15;67781;1278;1015776;-64
2023/09/08 03:48:46;;;;;;;21.10;6.90;;;;;;;18.91;49.67;99726.33;67831;1257;1016482;-65
2023/09/08 03:51:49;;;;;;;18.80;6.20;;;;;;;18.95;49.53;99722.27;67779;1278;1016363;-65
2023/09/08 03:54:51;;;;;;;20.90;7.10;;;;;;;18.97;49.54;99724.23;67828;1278;1016123;-64
2023/09/08 03:57:53;;;;;;;21.50;6.80;;;;;;;19.04;49.37;99725.20;67742;1278;1016426;-65
2023/09/08 04:00:56;;;;;;;24.60;7.00;;;;;;;18.98;49.61;99726.09;67741;1278;1016310;-65
2023/09/08 04:03:58;;;;;;;18.60;5.90;;;;;;;18.88;49.64;99728.88;67788;1278;1016391;-65
2023/09/08 04:07:01;;;;;;;19.50;5.60;;;;;;;18.94;49.78;99724.98;67805;1278;1016118;-65
2023/09/08 04:10:04;;;;;;;20.30;6.40;;;;;;;18.94;49.41;99727.48;67820;1278;1018796;-64
2023/09/08 04:13:06;;;;;;;19.20;6.20;;;;;;;18.95;49.40;99727.60;67811;1278;1016494;-65
2023/09/08 04:16:09;;;;;;;19.70;5.90;;;;;;;18.99;49.33;99724.63;67779;1278;1016282;-65
2023/09/08 04:19:11;;;;;;;17.80;6.00;;;;;;;19.14;49.15;99726.23;67823;1278;1016489;-65
2023/09/08 04:22:14;;;;;;;17.90;6.00;;;;;;;19.22;49.12;99720.74;67804;1278;1016021;-65
2023/09/08 04:25:16;;;;;;;20.60;6.20;;;;;;;19.35;49.04;99723.25;67799;1278;1016253;-65
2023/09/08 04:28:18;;;;;;;19.50;5.70;;;;;;;19.45;48.91;99725.40;67830;1278;1018454;-65
2023/09/08 04:31:21;;;;;;;19.70;5.90;;;;;;;19.53;48.96;99730.41;67840;1278;1016186;-65
2023/09/08 04:34:24;;;;;;;20.00;6.70;;;;;;;19.60;49.03;99732.31;67785;1278;1016389;-65
2023/09/08 04:37:26;;;;;;;17.30;6.10;;;;;;;19.68;48.92;99731.48;67800;1278;1016408;-65
2023/09/08 04:40:29;;;;;;;19.00;6.10;;;;;;;19.82;48.81;99729.98;67817;1278;1016267;-64
2023/09/08 04:43:31;;;;;;;22.80;6.90;;;;;;;19.92;48.82;99730.38;67810;1278;1016449;-64
2023/09/08 04:46:33;;;;;;;24.30;7.50;;;;;;;20.01;48.80;99726.77;67793;1278;1016442;-66
2023/09/08 04:49:36;;;;;;;21.10;7.10;;;;;;;20.11;48.79;99727.98;67784;1278;1016439;-62
2023/09/08 04:52:39;;;;;;;21.20;6.60;;;;;;;20.26;48.88;99733.06;67826;1278;1016227;-65
2023/09/08 04:55:41;;;;;;;21.20;6.40;;;;;;;20.45;48.81;99734.35;67829;1278;1016079;-64
2023/09/08 04:58:44;;;;;;;19.50;6.40;;;;;;;20.57;48.60;99733.12;67776;1278;1016354;-64
2023/09/08 05:01:46;;;;;;;20.30;5.90;;;;;;;20.70;48.66;99732.98;67781;1278;1016154;-65
2023/09/08 05:04:48;;;;;;;19.60;6.80;;;;;;;20.85;48.66;99731.84;67796;1278;1016375;-63
2023/09/08 05:07:55;;;;;;;21.60;7.60;;;;;;;21.08;48.56;99726.99;67746;1279;1017186;-63
2023/09/08 05:10:58;;;;;;;20.60;6.50;;;;;;;21.30;48.33;99722.81;67712;1279;1016242;-65
2023/09/08 05:14:00;;;;;;;21.50;6.80;;;;;;;21.48;48.29;99725.81;67688;1279;1016266;-62
2023/09/08 05:17:03;;;;;;;20.50;6.70;;;;;;;21.67;47.79;99720.42;67744;1278;1018679;-63
2023/09/08 05:20:05;;;;;;;21.40;7.00;;;;;;;21.77;47.85;99718.18;67749;1279;1016229;-63
2023/09/08 05:23:08;;;;;;;;;;;;;;;22.06;48.22;99717.05;67780;1279;1016510;-64
2023/09/08 05:26:10;;;;;;;21.90;7.40;;;;;;;22.18;48.35;99721.98;67670;1279;1016496;-64
2023/09/08 05:29:12;;;;;;;20.70;7.40;;;;;;;22.39;48.56;99722.90;67698;1279;1016090;-64
2023/09/08 05:32:15;;;;;;;20.10;6.40;;;;;;;22.64;48.58;99725.39;67748;1279;1019691;-63
2023/09/08 05:35:17;;;;;;;21.10;7.20;;;;;;;22.91;48.55;99721.42;67721;1279;1016046;-64
2023/09/08 05:38:19;;;;;;;21.80;6.40;;;;;;;23.24;48.19;99722.23;67745;1279;1017054;-64
2023/09/08 05:41:22;;;;;;;21.80;7.00;;;;;;;23.58;47.94;99723.20;67746;1279;1015815;-64
2023/09/08 05:44:25;;;;;;;20.30;6.90;;;;;;;23.78;47.93;99721.84;67705;1279;1016212;-64
2023/09/08 05:47:27;;;;;;;22.00;7.80;;;;;;;23.93;48.10;99722.62;67773;1279;1016079;-64
2023/09/08 05:50:29;;;;;;;;;;;;;;;24.13;48.00;99723.85;67808;1279;1016507;-64
2023/09/08 05:53:32;;;;;;;22.00;8.10;;;;;;;24.32;48.22;99719.88;67772;1279;1016733;-64
2023/09/08 05:56:34;;;;;;;;;;;;;;;24.63;48.17;99723.21;67746;1279;1017441;-64
2023/09/08 05:59:37;;;;;;;21.10;8.10;;;;;;;24.96;48.16;99719.77;67742;1279;1016266;-64
2023/09/08 06:02:39;;;;;;;;;;;;;;;25.32;48.40;99718.92;67740;1279;1016394;-63
2023/09/08 06:05:42;;;;;;;24.00;8.50;;;;;;;25.84;48.23;99717.92;67793;1278;1017327;-63
2023/09/08 06:08:44;;;;;;;;;;;;;;;26.07;48.16;99715.23;67667;1278;1016326;-65
2023/09/08 06:11:47;;;;;;;31.00;9.50;;;;;;;26.32;47.87;99716.50;67743;1278;1016395;-63
2023/09/08 06:14:49;;;;;;;24.00;9.20;;;;;;;26.59;47.83;99711.32;67818;1278;1018448;-62
2023/09/08 06:17:52;;;;;;;;;;;;;;;26.86;47.67;99707.25;67677;1278;1016430;-62
2023/09/08 06:20:54;;;;;;;27.40;9.90;;;;;;;27.19;47.42;99702.47;67677;1278;1016515;-60
2023/09/08 06:23:57;;;;;;;;;;;;;;;27.40;47.04;99697.19;67717;1278;1016448;-62
2023/09/08 06:26:59;;;;;;;;;;;;;;;27.52;46.99;99694.85;67790;1278;1016276;-62
2023/09/08 06:30:02;;;;;;;26.80;10.00;;;;;;;27.77;46.90;99695.89;67791;1278;1016406;-62
2023/09/08 06:33:04;;;;;;;25.20;10.10;;;;;;;27.99;46.45;99697.92;67791;1278;1016662;-62
2023/09/08 06:36:07;;;;;;;28.50;11.60;;;;;;;28.15;46.23;99698.20;67799;1278;1016473;-62
2023/09/08 06:39:10;;;;;;;27.00;10.90;;;;;;;28.40;46.12;99706.28;67849;1277;1016067;-61
2023/09/08 06:42:12;;;;;;;25.80;11.70;;;;;;;28.68;45.66;99707.60;67814;1270;1016449;-63
2023/09/08 06:45:15;;;;;;;26.10;11.20;;;;;;;28.89;45.48;99710.03;67808;1274;1016305;-61
2023/09/08 06:48:17;;;;;;;25.60;11.50;;;;;;;29.05;45.38;99706.41;67783;1278;1016413;-62
2023/09/08 06:51:19;;;;;;;27.00;11.60;;;;;;;29.21;45.35;99710.08;67767;1278;1016198;-64
2023/09/08 06:54:22;;;;;;;26.70;11.40;;;;;;;29.54;44.96;99706.77;67864;1277;1017826;-62
2023/09/08 06:57:24;;;;;;;28.40;11.70;;;;;;;29.70;44.89;99708.08;67834;1277;1016503;-62
2023/09/08 07:00:28;;;;;;;27.20;11.30;;;;;;;30.03;44.57;99704.82;67788;1277;1016437;-62
2023/09/08 07:03:36;;;;;;;29.70;12.60;;;;;;;30.23;44.51;99710.09;67880;1277;1016246;-63
2023/09/08 07:06:41;;;;;;;30.30;12.50;;;;;;;30.30;44.24;99711.16;67831;1277;1016508;-63
2023/09/08 07:09:44;;;;;;;26.90;11.70;;;;;;;30.52;44.21;99713.41;67860;1277;1016401;-62
2023/09/08 07:12:47;;;;;;;29.20;11.90;;;;;;;30.86;43.90;99710.56;67841;1278;1017985;-63
2023/09/08 07:15:49;;;;;;;29.20;12.20;;;;;;;30.91;43.54;99710.27;67731;1278;1016383;-62
2023/09/08 07:18:52;;;;;;;28.80;11.90;;;;;;;31.07;42.94;99707.09;67776;1278;1016470;-61
2023/09/08 07:21:54;;;;;;;27.40;11.70;;;;;;;31.16;43.03;99708.09;67825;1278;1016822;-62
2023/09/08 07:24:56;;;;;;;28.90;12.20;;;;;;;31.34;42.56;99704.44;67835;1277;1016476;-63
2023/09/08 07:27:59;;;;;;;29.00;12.50;;;;;;;31.57;42.47;99703.77;67820;1277;1016605;-63
2023/09/08 07:31:01;;;;;;;30.50;12.20;;;;;;;31.76;42.41;99704.82;67796;1277;1016416;-63
2023/09/08 07:34:04;;;;;;;30.40;12.70;;;;;;;31.92;42.21;99706.30;67832;1277;1018284;-63
2023/09/08 07:37:06;;;;;;;29.00;12.00;;;;;;;32.19;42.05;99703.81;67823;1277;1016446;-62
2023/09/08 07:40:09;;;;;;;29.70;12.30;;;;;;;32.50;41.27;99704.63;67790;1270;1015895;-63
2023/09/08 07:43:12;;;;;;;32.50;12.50;;;;;;;32.66;41.29;99706.20;67808;1277;1016859;-62
2023/09/08 07:46:14;;;;;;;27.00;12.00;;;;;;;32.91;40.70;99709.52;67831;1270;1016334;-63
2023/09/08 07:49:18;;;;;;;29.40;12.10;;;;;;;33.04;40.29;99713.50;67851;1277;1016364;-61
2023/09/08 07:52:21;;;;;;;28.70;11.70;;;;;;;33.14;40.26;99716.05;67860;1253;1016448;-63
2023/09/08 07:55:23;;;;;;;26.50;11.50;;;;;;;33.28;39.71;99711.94;67862;1277;1016809;-63
2023/09/08 07:58:26;;;;;;;26.40;11.00;;;;;;;33.42;39.57;99709.60;67788;1274;1018529;-63
2023/09/08 08:01:28;;;;;;;23.80;9.80;;;;;;;33.42;38.99;99711.45;67765;1278;1018705;-63
2023/09/08 08:04:30;;;;;;;23.10;9.30;;;;;;;33.49;38.54;99711.59;67820;1278;1016630;-63
2023/09/08 08:07:33;;;;;;;25.00;9.30;;;;;;;33.60;37.95;99711.38;67815;1278;1016500;-62
2023/09/08 08:10:35;;;;;;;25.80;8.70;;;;;;;33.60;37.81;99708.12;67802;1278;1016608;-62
2023/09/08 08:13:38;;;;;;;24.30;9.10;;;;;;;33.70;38.02;99707.02;67757;1278;1016323;-61
2023/09/08 08:16:40;;;;;;;22.90;8.60;;;;;;;33.90;37.59;99704.45;67778;1270;1018163;-61
2023/09/08 08:19:42;;;;;;;24.10;8.10;;;;;;;34.05;36.99;99702.48;67861;1276;1018562;-63
2023/09/08 08:22:45;;;;;;;21.10;8.10;;;;;;;34.08;37.23;99704.94;67828;1277;1016458;-62
2023/09/08 08:25:48;;;;;;;20.30;7.00;;;;;;;34.35;36.76;99701.80;67756;1270;1016383;-62
2023/09/08 08:28:50;;;;;;;20.80;7.10;;;;;;;34.40;36.07;99697.67;67814;1273;1016185;-64
2023/09/08 08:31:53;;;;;;;21.90;7.40;;;;;;;34.47;35.77;99697.54;67850;1277;1016399;-63
2023/09/08 08:34:55;;;;;;;20.50;7.50;;;;;;;34.48;36.12;99696.48;67838;1273;1016473;-62
2023/09/08 08:37:57;;;;;;;21.10;7.10;;;;;;;34.57;36.42;99699.00;67817;1274;1018958;-63
2023/09/08 08:41:00;;;;;;;23.30;7.10;;;;;;;34.72;35.37;99696.33;67764;1277;1016251;-63
2023/09/08 08:44:02;;;;;;;20.60;6.50;;;;;;;34.82;35.56;99692.34;67776;1270;1016387;-60
2023/09/08 08:47:05;;;;;;;18.50;6.40;;;;;;;34.91;35.19;99689.23;67788;1270;1016427;-60
2023/09/08 08:50:09;;;;;;;19.80;6.50;;;;;;;34.94;35.06;99689.33;67818;1277;1016491;-61
2023/09/08 08:53:12;;;;;;;20.30;6.60;;;;;;;35.03;34.61;99686.80;67794;1277;1016011;-63
2023/09/08 08:56:15;;;;;;;21.90;7.10;;;;;;;35.18;35.04;99683.88;67865;1277;1016561;-62
2023/09/08 08:59:17;;;;;;;20.00;6.50;;;;;;;35.34;34.78;99678.09;67821;1277;1016856;-62
2023/09/08 09:02:20;;;;;;;20.10;6.30;;;;;;;35.46;33.95;99679.91;67765;1270;1016988;-62
2023/09/08 09:05:22;;;;;;;19.80;6.40;;;;;;;35.42;33.76;99676.58;67791;1274;1016317;-61
2023/09/08 09:08:25;;;;;;;20.00;6.70;;;;;;;35.45;33.68;99677.70;67801;1270;1016599;-62
2023/09/08 09:11:27;;;;;;;19.90;6.90;;;;;;;35.47;33.14;99683.20;67791;1277;1016367;-63
2023/09/08 09:14:29;;;;;;;18.30;6.30;;;;;;;35.34;33.64;99682.63;67819;1277;1020096;-63
2023/09/08 09:17:32;;;;;;;19.50;6.00;;;;;;;35.37;33.22;99682.08;67806;1277;1016516;-63
2023/09/08 09:20:34;;;;;;;18.60;6.20;;;;;;;35.51;33.26;99679.69;67730;1273;1016363;-62
2023/09/08 09:23:37;;;;;;;18.90;6.00;;;;;;;35.58;33.00;99680.45;67836;1273;1015918;-63
2023/09/08 09:26:39;;;;;;;22.20;6.60;;;;;;;35.74;32.97;99681.85;67837;1273;1016283;-63
2023/09/08 09:29:45;;;;;;;19.10;7.00;;;;;;;35.89;32.53;99683.35;67848;1270;1016143;-63
2023/09/08 09:32:49;;;;;;;20.80;7.00;;;;;;;35.93;32.12;99682.06;67745;1278;1016533;-63
2023/09/08 09:39:09;;;;;;;19.20;6.70;;;;;;;35.96;32.35;99681.58;67836;1273;1016338;-63
2023/09/08 09:42:12;;;;;;;20.20;6.80;;;;;;;36.29;32.12;99685.13;67785;1277;1016271;-63
2023/09/08 09:45:20;;;;;;;20.60;6.60;;;;;;;36.34;31.05;99674.73;67813;1277;1016174;-63
2023/09/08 09:48:24;;;;;;;17.40;5.70;;;;;;;36.35;31.69;99679.68;67818;1269;1015686;-63
2023/09/08 09:51:26;;;;;;;18.90;6.50;;;;;;;36.52;31.00;99674.11;67799;1277;1016860;-64
2023/09/08 09:54:28;;;;;;;20.10;6.10;;;;;;;36.65;31.10;99668.95;67729;1274;1016330;-63
2023/09/08 09:57:31;;;;;;;18.30;5.80;;;;;;;36.83;31.10;99665.52;67818;1273;1016613;-64
2023/09/08 10:00:34;;;;;;;19.30;6.20;;;;;;;37.03;30.55;99669.59;67854;1277;1016489;-62
2023/09/08 10:03:36;;;;;;;16.80;5.50;;;;;;;37.25;30.48;99670.02;67811;1277;1016457;-64
2023/09/08 10:06:39;;;;;;;16.80;5.80;;;;;;;37.29;30.45;99667.34;67834;1277;1016389;-64
2023/09/08 10:09:41;;;;;;;17.90;5.60;;;;;;;37.33;29.67;99659.70;67864;1277;1016336;-63
2023/09/08 10:12:43;;;;;;;18.50;5.40;;;;;;;37.40;29.51;99655.92;67854;1277;1016405;-62
2023/09/08 10:15:46;;;;;;;15.50;5.40;;;;;;;37.48;29.33;99656.48;67827;1277;1016173;-63
2023/09/08 10:18:48;;;;;;;19.60;5.80;;;;;;;37.60;29.28;99652.15;67790;1277;1018714;-63
2023/09/08 10:21:51;;;;;;;16.60;5.60;;;;;;;37.72;29.21;99648.62;67769;1277;1016428;-63
2023/09/08 10:24:54;;;;;;;16.30;5.50;;;;;;;37.82;29.11;99647.07;67859;1277;1016210;-63
2023/09/08 10:27:56;;;;;;;16.80;5.40;;;;;;;37.89;28.71;99641.90;67817;1277;1016345;-63
2023/09/08 10:30:58;;;;;;;18.30;5.90;;;;;;;37.83;28.97;99646.53;67796;1277;1016156;-63
2023/09/08 10:34:02;;;;;;;16.40;5.70;;;;;;;37.95;29.04;99641.81;67794;1277;1015864;-64
2023/09/08 10:37:04;;;;;;;18.80;5.90;;;;;;;38.21;28.70;99645.15;67789;1277;1016802;-63
2023/09/08 10:40:07;;;;;;;18.10;5.90;;;;;;;38.31;27.79;99641.33;67817;1277;1016492;-63
2023/09/08 10:43:10;;;;;;;18.40;5.70;;;;;;;38.17;28.08;99639.13;67791;1277;1015983;-63
2023/09/08 10:46:13;;;;;;;18.40;5.90;;;;;;;38.02;28.16;99633.14;67823;1277;1016406;-63
2023/09/08 10:49:15;;;;;;;17.50;5.50;;;;;;;38.16;28.42;99634.09;67848;1277;1016522;-63
2023/09/08 10:52:20;;;;;;;16.80;5.30;;;;;;;38.29;27.69;99629.60;67857;1277;1016600;-63
2023/09/08 10:55:22;;;;;;;19.60;5.70;;;;;;;38.27;27.87;99628.96;67849;1277;1016147;-63
2023/09/08 10:58:24;;;;;;;19.30;5.70;;;;;;;38.30;27.60;99627.08;67840;1277;1016383;-63
2023/09/08 11:01:28;;;;;;;17.10;5.40;;;;;;;38.39;27.72;99625.03;67816;1277;1016466;-63
2023/09/08 11:04:32;;;;;;;17.40;5.50;;;;;;;38.54;27.09;99620.79;67861;1277;1016223;-63
2023/09/08 11:07:34;;;;;;;15.60;5.30;;;;;;;38.77;27.03;99620.48;67839;1277;1016939;-63
2023/09/08 11:10:37;;;;;;;17.30;5.80;;;;;;;38.93;26.87;99619.73;67863;1277;1016134;-63
2023/09/08 11:13:40;;;;;;;16.90;5.50;;;;;;;39.05;26.89;99614.03;67861;1277;1016456;-63
2023/09/08 11:16:43;;;;;;;16.80;5.20;;;;;;;38.96;27.04;99615.33;67812;1277;1015729;-63
2023/09/08 11:19:46;;;;;;;17.30;5.60;;;;;;;38.85;26.35;99612.55;67879;1277;1017298;-63
2023/09/08 11:22:48;;;;;;;16.80;5.40;;;;;;;38.70;26.66;99610.11;67850;1277;1016462;-64
2023/09/08 11:25:51;;;;;;;16.40;5.10;;;;;;;38.83;26.59;99608.86;67880;1277;1016446;-63
2023/09/08 11:28:54;;;;;;;16.80;5.00;;;;;;;38.98;26.02;99608.10;67826;1277;1016413;-64
2023/09/08 11:31:56;;;;;;;16.30;5.10;;;;;;;39.02;26.21;99604.23;67861;1277;1016388;-63
2023/09/08 11:34:59;;;;;;;17.40;5.10;;;;;;;39.20;26.16;99601.11;67853;1277;1018468;-63
2023/09/08 11:38:04;;;;;;;17.40;5.90;;;;;;;39.46;26.06;99600.59;67836;1277;1016307;-64
2023/09/08 11:41:07;;;;;;;16.50;5.20;;;;;;;39.56;25.61;99596.27;67806;1277;1016248;-64
2023/09/08 11:44:09;;;;;;;15.40;5.00;;;;;;;39.41;24.85;99592.95;67812;1277;1017452;-64
2023/09/08 11:47:11;;;;;;;19.60;5.30;;;;;;;39.47;24.82;99591.28;67785;1277;1016866;-63
2023/09/08 11:50:16;;;;;;;16.30;5.10;;;;;;;39.64;25.29;99587.81;67840;1277;1016134;-62
2023/09/08 11:53:19;;;;;;;15.30;4.80;;;;;;;39.69;25.12;99586.20;67838;1277;1016135;-63
2023/09/08 11:56:21;;;;;;;17.40;5.30;;;;;;;39.63;24.74;99585.98;67834;1277;1016510;-64
2023/09/08 11:59:24;;;;;;;18.20;5.20;;;;;;;39.68;24.75;99586.79;67842;1277;1016320;-63
2023/09/08 12:02:26;;;;;;;17.90;5.10;;;;;;;39.51;24.57;99585.48;67867;1277;1016517;-64
2023/09/08 12:05:29;;;;;;;16.90;5.50;;;;;;;39.53;24.95;99580.48;67808;1277;1019763;-63
2023/09/08 12:08:32;;;;;;;15.10;5.30;;;;;;;39.58;24.54;99577.86;67831;1277;1016491;-63
2023/09/08 12:11:37;;;;;;;15.90;5.00;;;;;;;39.66;24.43;99572.52;67863;1277;1016765;-63
2023/09/08 12:14:39;;;;;;;14.20;4.80;;;;;;;39.68;24.12;99573.17;67824;1277;1018163;-63
2023/09/08 12:17:41;;;;;;;13.20;4.60;;;;;;;39.81;23.99;99565.38;67816;1277;1016513;-64
2023/09/08 12:20:44;;;;;;;14.20;4.50;;;;;;;39.91;24.25;99565.40;67815;1277;1016729;-63
2023/09/08 12:23:46;;;;;;;18.80;6.50;;;;;;;39.80;24.18;99563.52;67841;1277;1016574;-63
2023/09/08 12:26:49;;;;;;;14.50;4.80;;;;;;;39.73;24.63;99561.23;67870;1277;1015895;-63
2023/09/08 12:29:51;;;;;;;13.60;4.60;;;;;;;39.76;24.24;99557.58;67852;1277;1016417;-64
2023/09/08 12:32:53;;;;;;;16.40;5.50;;;;;;;39.84;24.33;99557.21;67819;1277;1016284;-64
2023/09/08 12:35:56;;;;;;;16.30;5.30;;;;;;;39.90;24.14;99558.44;67830;1277;1017710;-63
2023/09/08 12:38:58;;;;;;;14.20;4.80;;;;;;;39.86;24.13;99559.75;67830;1277;1016716;-63
2023/09/08 12:42:00;;;;;;;17.00;4.80;;;;;;;39.80;23.96;99556.10;67840;1277;1016396;-63
2023/09/08 12:45:03;;;;;;;15.80;5.10;;;;;;;39.61;23.36;99551.25;67863;1277;1016874;-63
2023/09/08 12:48:06;;;;;;;14.80;4.60;;;;;;;39.51;23.97;99552.17;67876;1277;1018103;-63
2023/09/08 12:51:09;;;;;;;13.20;4.20;;;;;;;39.76;23.36;99552.35;67864;1277;1016138;-63
2023/09/08 12:54:11;;;;;;;12.30;4.50;;;;;;;39.89;23.75;99552.50;67843;1277;1016502;-63
2023/09/08 12:57:13;;;;;;;16.80;4.80;;;;;;;39.96;23.57;99555.21;67844;1277;1016330;-64
2023/09/08 13:00:16;;;;;;;14.70;4.70;;;;;;;39.94;23.61;99552.23;67822;1277;1019088;-63
2023/09/08 13:03:18;;;;;;;18.40;4.60;;;;;;;40.05;23.57;99546.80;67837;1253;1016597;-63
2023/09/08 13:06:21;;;;;;;12.30;4.30;;;;;;;39.90;23.05;99545.70;67833;1277;1016019;-63
2023/09/08 13:09:23;;;;;;;16.90;4.70;;;;;;;39.77;23.09;99540.66;67880;1277;1016252;-63
2023/09/08 13:12:26;;;;;;;12.10;4.40;;;;;;;39.91;23.40;99534.98;67869;1277;1016666;-64
2023/09/08 13:15:28;;;;;;;15.40;4.80;;;;;;;39.72;23.14;99530.54;67796;1277;1016415;-64
2023/09/08 13:18:35;;;;;;;12.00;4.40;;;;;;;39.79;23.81;99534.63;67825;1277;1016408;-63
2023/09/08 13:21:37;;;;;;;16.30;5.10;;;;;;;39.88;23.73;99533.23;67860;1277;1016341;-63
2023/09/08 13:24:40;;;;;;;16.40;4.60;;;;;;;39.98;23.09;99531.70;67839;1277;1016078;-63
2023/09/08 13:27:42;;;;;;;13.10;4.30;;;;;;;39.64;23.44;99528.33;67818;1277;1016257;-64
2023/09/08 13:30:45;;;;;;;14.80;4.50;;;;;;;39.23;22.75;99527.66;67838;1277;1016509;-63
2023/09/08 13:33:47;;;;;;;16.90;4.60;;;;;;;38.76;22.96;99524.94;67855;1277;1016096;-63
2023/09/08 13:36:50;;;;;;;14.30;4.80;;;;;;;38.74;24.49;99526.13;67875;1277;1015940;-63
2023/09/08 13:39:52;;;;;;;17.20;4.70;;;;;;;39.07;24.43;99522.78;67873;1277;1016454;-63
2023/09/08 13:42:54;;;;;;;12.90;4.30;;;;;;;39.37;23.91;99519.29;67807;1277;1016478;-64
2023/09/08 13:45:57;;;;;;;13.20;4.20;;;;;;;39.40;23.05;99509.70;67847;1277;1017690;-63
2023/09/08 13:48:59;;;;;;;14.50;4.60;;;;;;;39.18;22.73;99512.95;67851;1277;1016101;-64
2023/09/08 13:52:02;;;;;;;14.70;4.50;;;;;;;39.45;23.32;99510.36;67883;1277;1016736;-63
2023/09/08 13:55:04;;;;;;;16.10;4.40;;;;;;;39.45;23.28;99500.22;67885;1277;1016237;-63